Time;durP1;ratioP1;P1;durP2;ratioP2;P2;SDS_P1;SDS_P2;PMS_P1;PMS_P2;Temp;Humidity;BMP_temperature;BMP_pressure;BME280_temperature;BME280_humidity;BME280_pressure;Samples;Min_cycle;Max_cycle;Signal;HPM_P1;HPM_P2
2023/03/13 00:01:46;;;;;;;0.03;0.03;;;6.80;99.90;;;;;;5035232;28;20184;-85
2023/03/13 00:04:11;;;;;;;0.10;0.10;;;6.90;99.90;;;;;;5018290;28;20201;-85
2023/03/13 00:06:39;;;;;;;0.10;0.10;;;7.00;99.90;;;;;;5035201;28;20193;-86
2023/03/13 00:09:08;;;;;;;0.10;0.10;;;7.10;99.90;;;;;;5018921;28;20209;-86
2023/03/13 00:11:34;;;;;;;0.10;0.10;;;7.10;99.90;;;;;;5031843;28;20176;-86
2023/03/13 00:14:03;;;;;;;0.10;0.10;;;7.20;99.90;;;;;;5016847;28;20810;-86
2023/03/13 00:16:29;;;;;;;0.00;0.00;;;7.20;99.90;;;;;;5033436;28;20185;-85
2023/03/13 00:18:56;;;;;;;1.47;1.43;;;7.20;99.90;;;;;;5034526;28;20727;-85
2023/03/13 00:21:24;;;;;;;0.10;0.10;;;7.20;99.90;;;;;;5017966;28;20185;-86
2023/03/13 00:23:51;;;;;;;0.10;0.10;;;7.20;99.90;;;;;;5016290;28;20635;-86
2023/03/13 00:26:19;;;;;;;0.10;0.10;;;7.20;99.90;;;;;;5035254;28;20200;-86
2023/03/13 00:28:45;;;;;;;0.10;0.10;;;7.10;99.90;;;;;;5017032;28;20216;-86
2023/03/13 00:31:14;;;;;;;0.10;0.10;;;7.00;99.90;;;;;;5016755;28;20526;-85
2023/03/13 00:33:42;;;;;;;0.10;0.10;;;6.90;99.90;;;;;;5032833;28;20264;-86
2023/03/13 00:36:13;;;;;;;0.00;0.00;;;6.80;99.90;;;;;;5016918;28;20190;-86
2023/03/13 00:38:39;;;;;;;0.07;0.07;;;6.80;99.90;;;;;;5016917;28;20572;-85
2023/03/13 00:41:11;;;;;;;0.10;0.10;;;6.70;99.90;;;;;;5017314;28;20231;-83
2023/03/13 00:43:39;;;;;;;0.10;0.10;;;6.60;99.90;;;;;;5016827;28;20828;-85
2023/03/13 00:46:05;;;;;;;0.10;0.10;;;6.60;99.90;;;;;;5015949;28;20202;-85
2023/03/13 00:48:32;;;;;;;0.10;0.10;;;6.60;99.90;;;;;;5034545;28;20216;-85
2023/03/13 00:50:58;;;;;;;0.10;0.10;;;6.70;99.90;;;;;;5015206;28;20190;-86
2023/03/13 00:53:23;;;;;;;0.10;0.10;;;6.90;99.90;;;;;;5015293;28;20192;-86
2023/03/13 00:55:58;;;;;;;0.10;0.10;;;7.00;99.90;;;;;;5016696;28;20185;-85
2023/03/13 00:58:25;;;;;;;0.10;0.10;;;7.10;99.90;;;;;;5034559;28;20218;-85
2023/03/13 01:00:52;;;;;;;0.10;0.10;;;7.20;99.90;;;;;;5017612;28;20193;-85
2023/03/13 01:03:18;;;;;;;0.10;0.10;;;7.20;99.90;;;;;;5016145;28;20191;-86
2023/03/13 01:05:44;;;;;;;0.10;0.10;;;7.40;99.90;;;;;;5034608;28;20189;-85
2023/03/13 01:08:10;;;;;;;0.10;0.10;;;7.30;99.90;;;;;;5014177;28;20687;-86
2023/03/13 01:10:36;;;;;;;0.00;0.00;;;7.40;99.90;;;;;;5017731;28;20671;-86
2023/03/13 01:13:03;;;;;;;0.10;0.10;;;7.20;99.90;;;;;;5014468;28;20181;-85
2023/03/13 01:15:30;;;;;;;0.10;0.10;;;7.20;99.90;;;;;;5033054;28;20181;-86
2023/03/13 01:17:55;;;;;;;0.10;0.10;;;7.10;99.90;;;;;;5035286;28;20208;-86
2023/03/13 01:20:21;;;;;;;0.10;0.10;;;7.10;99.90;;;;;;5034523;28;20197;-86
2023/03/13 01:22:46;;;;;;;0.10;0.10;;;7.10;99.90;;;;;;5015861;28;20658;-86
2023/03/13 01:25:12;;;;;;;0.00;0.00;;;7.20;99.90;;;;;;5033738;28;20273;-86
2023/03/13 01:27:37;;;;;;;0.10;0.10;;;7.20;99.90;;;;;;5018822;28;20697;-85
2023/03/13 01:30:03;;;;;;;0.10;0.10;;;7.30;99.90;;;;;;5020629;28;20216;-85
2023/03/13 01:32:32;;;;;;;0.10;0.10;;;7.10;99.90;;;;;;5037762;28;20185;-87
2023/03/13 01:34:57;;;;;;;0.10;0.10;;;7.10;99.90;;;;;;5020090;28;20246;-86
2023/03/13 01:37:23;;;;;;;0.10;0.10;;;7.30;99.90;;;;;;5020223;28;20205;-85
2023/03/13 01:39:48;;;;;;;0.10;0.10;;;7.40;99.90;;;;;;5020941;28;20324;-86
2023/03/13 01:42:14;;;;;;;0.10;0.10;;;7.50;99.90;;;;;;5019486;28;20709;-86
2023/03/13 01:44:54;;;;;;;0.10;0.10;;;7.60;99.90;;;;;;5036333;28;20214;-86
2023/03/13 01:47:20;;;;;;;0.00;0.00;;;7.60;99.90;;;;;;5037100;28;20227;-85
2023/03/13 01:49:47;;;;;;;0.10;0.10;;;7.60;99.90;;;;;;5036128;28;20240;-85
2023/03/13 01:52:24;;;;;;;0.10;0.10;;;7.40;99.90;;;;;;5020531;28;20217;-86
2023/03/13 01:55:01;;;;;;;0.10;0.10;;;7.50;99.90;;;;;;5018624;28;20205;-86
2023/03/13 01:57:32;;;;;;;0.10;0.10;;;7.30;99.90;;;;;;5019530;28;20201;-85
2023/03/13 02:00:25;;;;;;;0.07;0.07;;;7.40;99.90;;;;;;5020311;28;20249;-85
2023/03/13 02:02:54;;;;;;;0.10;0.10;;;7.40;99.90;;;;;;5019948;28;20170;-86
2023/03/13 02:05:23;;;;;;;0.10;0.10;;;7.40;99.90;;;;;;5018904;28;20200;-86
2023/03/13 02:08:00;;;;;;;0.10;0.10;;;7.30;99.90;;;;;;5036991;28;20194;-85
2023/03/13 02:10:28;;;;;;;0.10;0.10;;;7.30;99.90;;;;;;5018783;28;20177;-85
2023/03/13 02:12:55;;;;;;;0.03;0.03;;;7.30;99.90;;;;;;5038942;28;20185;-86
2023/03/13 02:15:23;;;;;;;0.10;0.10;;;7.30;99.90;;;;;;5018437;28;20185;-85
2023/03/13 02:17:50;;;;;;;0.10;0.10;;;7.40;99.90;;;;;;5037014;28;20198;-85
2023/03/13 02:20:18;;;;;;;0.10;0.10;;;7.40;99.90;;;;;;5037588;28;20675;-85
2023/03/13 02:23:18;;;;;;;0.10;0.10;;;7.40;99.90;;;;;;5020292;28;20259;-86
2023/03/13 02:25:49;;;;;;;0.10;0.10;;;7.50;99.90;;;;;;5020102;28;20170;-86
2023/03/13 02:28:32;;;;;;;0.10;0.10;;;7.60;99.90;;;;;;5026598;28;20325;-86
2023/03/13 02:30:58;;;;;;;0.10;0.10;;;7.80;99.90;;;;;;5038469;28;20190;-87
2023/03/13 02:33:29;;;;;;;0.00;0.00;;;7.90;99.90;;;;;;5058631;28;20194;-87
2023/03/13 02:35:55;;;;;;;0.10;0.10;;;8.00;99.90;;;;;;5039104;28;20197;-86
2023/03/13 02:38:26;;;;;;;0.03;0.03;;;8.10;99.90;;;;;;5058630;28;20214;-87
2023/03/13 02:40:52;;;;;;;0.10;0.10;;;8.10;99.90;;;;;;5026826;28;20176;-86
2023/03/13 02:43:21;;;;;;;0.10;0.10;;;8.20;99.90;;;;;;5027355;28;20190;-86
2023/03/13 02:46:12;;;;;;;0.00;0.00;;;8.30;99.90;;;;;;5028802;28;20191;-87
2023/03/13 02:48:41;;;;;;;0.10;0.10;;;8.40;99.90;;;;;;5018278;28;20348;-86
2023/03/13 02:51:16;;;;;;;0.10;0.10;;;8.40;99.90;;;;;;5018518;28;20197;-86
2023/03/13 02:53:43;;;;;;;0.10;0.10;;;8.50;99.90;;;;;;5037555;28;20605;-85
2023/03/13 02:56:13;;;;;;;0.10;0.10;;;8.70;99.90;;;;;;5038356;28;20182;-85
2023/03/13 02:58:40;;;;;;;0.10;0.10;;;8.80;99.90;;;;;;5035182;28;20194;-85
2023/03/13 03:01:06;;;;;;;0.10;0.10;;;8.90;99.90;;;;;;5020015;28;20212;-86
2023/03/13 03:03:32;;;;;;;0.10;0.10;;;9.00;99.90;;;;;;5019950;28;20224;-86
2023/03/13 03:05:58;;;;;;;0.10;0.10;;;9.10;99.90;;;;;;5019110;28;20596;-86
2023/03/13 03:08:23;;;;;;;0.03;0.03;;;9.20;99.90;;;;;;5019320;28;20214;-85
2023/03/13 03:10:49;;;;;;;0.10;0.10;;;9.30;99.90;;;;;;5019774;28;20289;-85
2023/03/13 03:13:14;;;;;;;0.10;0.10;;;9.40;99.90;;;;;;5014697;28;20186;-86
2023/03/13 03:15:40;;;;;;;0.10;0.10;;;9.60;99.90;;;;;;5036649;28;20192;-85
2023/03/13 03:18:05;;;;;;;0.10;0.10;;;9.60;99.90;;;;;;5018516;28;20213;-85
2023/03/13 03:20:31;;;;;;;0.10;0.10;;;9.70;99.90;;;;;;5019346;28;20185;-85
2023/03/13 03:22:56;;;;;;;0.10;0.10;;;9.80;99.90;;;;;;5033665;28;20182;-86
2023/03/13 03:25:23;;;;;;;0.10;0.10;;;9.90;99.90;;;;;;5033610;28;20339;-85
2023/03/13 03:27:48;;;;;;;0.10;0.10;;;10.00;99.90;;;;;;5034697;28;20695;-86
2023/03/13 03:30:14;;;;;;;0.10;0.10;;;10.10;99.90;;;;;;5018233;28;20201;-86
2023/03/13 03:32:40;;;;;;;0.10;0.10;;;10.00;99.90;;;;;;5017429;28;20179;-86
2023/03/13 03:35:06;;;;;;;0.10;0.10;;;10.10;99.90;;;;;;5035870;28;20182;-85
2023/03/13 03:37:31;;;;;;;0.10;0.10;;;10.10;99.90;;;;;;5015981;28;20206;-85
2023/03/13 03:39:57;;;;;;;0.10;0.10;;;10.10;99.90;;;;;;5017795;28;20281;-85
2023/03/13 03:42:22;;;;;;;0.10;0.10;;;10.10;99.90;;;;;;5033942;28;20194;-86
2023/03/13 03:44:48;;;;;;;0.10;0.10;;;10.20;99.90;;;;;;5020058;28;20190;-86
2023/03/13 03:47:13;;;;;;;0.10;0.10;;;10.10;99.90;;;;;;5015235;28;20217;-84
2023/03/13 03:49:39;;;;;;;0.10;0.10;;;10.10;99.90;;;;;;5016618;28;20217;-86
2023/03/13 03:52:05;;;;;;;0.10;0.10;;;10.10;99.90;;;;;;5018878;28;20199;-85
2023/03/13 03:54:30;;;;;;;0.10;0.10;;;10.10;99.90;;;;;;5016555;28;20182;-86
2023/03/13 03:56:56;;;;;;;0.10;0.10;;;10.10;99.90;;;;;;5035406;28;20549;-86
2023/03/13 03:59:22;;;;;;;0.10;0.10;;;10.00;99.90;;;;;;5036424;28;20194;-85
2023/03/13 04:01:47;;;;;;;0.03;0.03;;;10.00;99.90;;;;;;5016941;28;20244;-85
2023/03/13 04:04:13;;;;;;;0.10;0.10;;;9.80;99.90;;;;;;5015510;28;20228;-84
2023/03/13 04:06:38;;;;;;;0.10;0.10;;;9.70;99.90;;;;;;5016590;28;20182;-86
2023/03/13 04:09:04;;;;;;;0.10;0.10;;;9.70;99.90;;;;;;5033229;28;20221;-86
2023/03/13 04:11:29;;;;;;;0.10;0.10;;;9.70;99.90;;;;;;5017204;28;20187;-85
2023/03/13 04:13:55;;;;;;;0.00;0.00;;;9.80;99.90;;;;;;5016886;28;20185;-86
2023/03/13 04:16:21;;;;;;;0.10;0.10;;;9.80;99.90;;;;;;5034951;28;20235;-85
2023/03/13 04:18:46;;;;;;;0.10;0.10;;;9.80;99.90;;;;;;5017520;28;20248;-86
2023/03/13 04:21:12;;;;;;;0.10;0.10;;;9.70;99.90;;;;;;5017046;28;20204;-85
2023/03/13 04:23:37;;;;;;;0.10;0.10;;;9.80;99.90;;;;;;5035450;28;21566;-84
2023/03/13 04:26:03;;;;;;;0.10;0.10;;;9.90;99.90;;;;;;5017516;28;20198;-85
2023/03/13 04:28:29;;;;;;;0.10;0.10;;;9.90;99.90;;;;;;5033496;28;20245;-86
2023/03/13 04:30:56;;;;;;;0.10;0.10;;;10.00;99.90;;;;;;5034453;28;20193;-86
2023/03/13 04:33:23;;;;;;;0.10;0.10;;;10.00;99.90;;;;;;5011706;28;20196;-86
2023/03/13 04:35:48;;;;;;;0.10;0.10;;;10.20;99.90;;;;;;5012568;28;20190;-86
2023/03/13 04:38:14;;;;;;;0.10;0.10;;;10.30;99.90;;;;;;5015304;28;20221;-85
2023/03/13 04:40:39;;;;;;;0.10;0.10;;;10.40;99.90;;;;;;5015632;28;21146;-85
2023/03/13 04:43:05;;;;;;;0.10;0.10;;;10.30;99.90;;;;;;5034403;28;20190;-85
2023/03/13 04:45:30;;;;;;;0.10;0.10;;;10.30;99.90;;;;;;5014757;28;20205;-84
2023/03/13 04:47:56;;;;;;;0.10;0.10;;;10.40;99.90;;;;;;5015878;28;20217;-86
2023/03/13 04:50:21;;;;;;;0.10;0.10;;;10.50;99.90;;;;;;5032588;28;20298;-86
2023/03/13 04:52:47;;;;;;;0.10;0.10;;;10.60;99.90;;;;;;5016389;28;20239;-86
2023/03/13 04:55:12;;;;;;;0.10;0.10;;;10.60;99.90;;;;;;5015883;28;20874;-85
2023/03/13 04:57:38;;;;;;;0.10;0.10;;;10.70;99.90;;;;;;5033004;28;20213;-86
2023/03/13 05:00:07;;;;;;;0.10;0.10;;;10.70;99.90;;;;;;5014035;28;20676;-85
2023/03/13 05:02:32;;;;;;;0.10;0.10;;;10.70;99.90;;;;;;5015424;28;20234;-84
2023/03/13 05:04:58;;;;;;;0.10;0.10;;;10.70;99.90;;;;;;5016193;28;20189;-85
2023/03/13 05:07:23;;;;;;;0.10;0.10;;;10.80;99.90;;;;;;5014174;28;20585;-85
2023/03/13 05:09:49;;;;;;;0.10;0.10;;;10.80;99.90;;;;;;5033092;28;20210;-86
2023/03/13 05:12:14;;;;;;;0.10;0.10;;;10.80;99.90;;;;;;5015424;28;20178;-86
2023/03/13 05:14:40;;;;;;;0.10;0.10;;;10.70;99.90;;;;;;5032117;28;20198;-86
2023/03/13 05:17:05;;;;;;;0.10;0.10;;;10.80;99.90;;;;;;5034661;28;20186;-87
2023/03/13 05:19:31;;;;;;;0.10;0.10;;;10.80;99.90;;;;;;5017427;28;20323;-85
2023/03/13 05:21:57;;;;;;;0.10;0.10;;;10.90;99.90;;;;;;5018013;28;20190;-87
2023/03/13 05:24:24;;;;;;;0.00;0.00;;;11.00;99.90;;;;;;5016496;28;20191;-86
2023/03/13 05:26:50;;;;;;;0.10;0.10;;;11.00;99.90;;;;;;5037326;28;20361;-85
2023/03/13 05:29:15;;;;;;;0.10;0.10;;;11.10;99.90;;;;;;5016244;28;20217;-86
2023/03/13 05:31:41;;;;;;;0.10;0.10;;;11.20;99.90;;;;;;5032103;28;20195;-85
2023/03/13 05:34:06;;;;;;;0.10;0.10;;;11.20;99.90;;;;;;5016671;28;20995;-86
2023/03/13 05:36:32;;;;;;;0.00;0.00;;;11.20;99.90;;;;;;5033881;28;20183;-85
2023/03/13 05:38:57;;;;;;;0.10;0.10;;;11.20;99.90;;;;;;5015276;28;20305;-86
2023/03/13 05:41:23;;;;;;;0.10;0.10;;;11.30;99.90;;;;;;5032590;28;20272;-86
2023/03/13 05:43:48;;;;;;;0.10;0.10;;;11.30;99.90;;;;;;5013176;28;20196;-86
2023/03/13 05:46:14;;;;;;;0.10;0.10;;;11.30;99.90;;;;;;5017261;28;20279;-85
2023/03/13 05:48:39;;;;;;;0.10;0.10;;;11.40;99.90;;;;;;5015122;28;20238;-84
2023/03/13 05:51:05;;;;;;;0.10;0.10;;;11.40;99.90;;;;;;5014982;28;20656;-85
2023/03/13 05:53:30;;;;;;;0.10;0.10;;;11.40;99.90;;;;;;5016321;28;20344;-85
2023/03/13 05:55:56;;;;;;;0.10;0.10;;;11.40;99.90;;;;;;5013966;28;20177;-85
2023/03/13 05:58:21;;;;;;;0.03;0.03;;;11.40;99.90;;;;;;5014827;28;20214;-85
2023/03/13 06:00:47;;;;;;;0.10;0.10;;;11.50;99.90;;;;;;5014018;28;20195;-86
2023/03/13 06:03:13;;;;;;;0.10;0.10;;;11.50;99.90;;;;;;5031531;28;20200;-86
2023/03/13 06:05:38;;;;;;;0.10;0.10;;;11.50;99.90;;;;;;5015444;28;20196;-85
2023/03/13 06:08:04;;;;;;;0.10;0.10;;;11.50;99.90;;;;;;5033040;28;20213;-85
2023/03/13 06:10:30;;;;;;;0.10;0.10;;;11.60;99.90;;;;;;5013757;28;20186;-85
2023/03/13 06:12:55;;;;;;;0.03;0.03;;;11.60;99.90;;;;;;5013652;28;20269;-82
2023/03/13 06:15:21;;;;;;;0.07;0.07;;;11.60;99.90;;;;;;5019698;28;20230;-83
2023/03/13 06:17:47;;;;;;;0.10;0.10;;;11.70;99.90;;;;;;5034979;28;22150;-84
2023/03/13 06:20:13;;;;;;;0.10;0.10;;;11.70;99.90;;;;;;5020513;28;20182;-84
2023/03/13 06:22:39;;;;;;;0.10;0.10;;;11.70;99.90;;;;;;5034432;28;20687;-88
2023/03/13 06:25:05;;;;;;;0.10;0.10;;;11.70;99.90;;;;;;5018314;28;20244;-87
2023/03/13 06:27:31;;;;;;;0.10;0.10;;;11.80;99.90;;;;;;5015653;28;20202;-85
2023/03/13 06:29:56;;;;;;;0.10;0.10;;;11.80;99.90;;;;;;5047889;28;20698;-86
2023/03/13 06:32:22;;;;;;;0.10;0.10;;;11.80;99.90;;;;;;5035709;28;20652;-87
2023/03/13 06:34:48;;;;;;;0.10;0.10;;;11.90;99.90;;;;;;5030765;28;20177;-87
2023/03/13 06:37:14;;;;;;;0.10;0.10;;;11.90;99.90;;;;;;5039564;28;20204;-86
2023/03/13 06:39:40;;;;;;;0.10;0.10;;;11.90;99.90;;;;;;5035764;28;20908;-87
2023/03/13 06:42:06;;;;;;;0.10;0.10;;;11.90;99.90;;;;;;5032663;28;20204;-86
2023/03/13 06:44:31;;;;;;;0.10;0.10;;;12.00;99.90;;;;;;5031396;28;20261;-85
2023/03/13 06:46:57;;;;;;;0.10;0.10;;;12.00;99.90;;;;;;5020801;28;21177;-86
2023/03/13 06:49:22;;;;;;;0.10;0.10;;;12.00;99.90;;;;;;5018525;28;20224;-86
2023/03/13 06:51:48;;;;;;;0.10;0.10;;;12.10;99.90;;;;;;5016096;28;20198;-85
2023/03/13 06:54:13;;;;;;;0.10;0.10;;;12.00;99.90;;;;;;5019534;28;20680;-85
2023/03/13 06:56:39;;;;;;;0.10;0.10;;;12.10;99.90;;;;;;5019080;28;20353;-86
2023/03/13 06:59:06;;;;;;;0.10;0.10;;;12.10;99.90;;;;;;5017803;28;20217;-85
2023/03/13 07:01:31;;;;;;;0.10;0.10;;;12.20;99.90;;;;;;5019396;28;20631;-85
2023/03/13 07:03:57;;;;;;;0.10;0.10;;;12.20;99.90;;;;;;5037978;28;20197;-85
2023/03/13 07:06:22;;;;;;;0.10;0.10;;;12.30;99.90;;;;;;5040323;28;20193;-86
2023/03/13 07:08:48;;;;;;;0.00;0.00;;;12.30;99.90;;;;;;5021159;28;20225;-85
2023/03/13 07:11:14;;;;;;;0.10;0.10;;;12.40;99.90;;;;;;5018640;28;20213;-85
2023/03/13 07:13:40;;;;;;;0.10;0.10;;;12.40;99.90;;;;;;5019979;28;20193;-86
2023/03/13 07:16:11;;;;;;;0.10;0.10;;;12.40;99.90;;;;;;5027692;28;20193;-85
2023/03/13 07:18:38;;;;;;;0.10;0.10;;;12.50;99.90;;;;;;5031837;28;20245;-85
2023/03/13 07:21:04;;;;;;;0.10;0.10;;;12.50;99.90;;;;;;5051984;28;20186;-85
2023/03/13 07:23:30;;;;;;;0.10;0.10;;;12.60;99.90;;;;;;5045154;28;20195;-85
2023/03/13 07:26:10;;;;;;;0.10;0.10;;;12.60;99.90;;;;;;5030494;28;20192;-86
2023/03/13 07:28:35;;;;;;;0.10;0.10;;;12.60;99.90;;;;;;5023514;28;20270;-86
2023/03/13 07:31:20;;;;;;;0.10;0.10;;;12.60;99.90;;;;;;5017406;28;20190;-84
2023/03/13 07:33:46;;;;;;;0.10;0.10;;;12.70;99.90;;;;;;5015162;28;20186;-86
2023/03/13 07:36:13;;;;;;;0.10;0.10;;;12.80;99.90;;;;;;5017071;28;20197;-84
2023/03/13 07:38:39;;;;;;;0.10;0.10;;;12.80;99.90;;;;;;5022017;28;20237;-84
2023/03/13 07:41:05;;;;;;;0.10;0.10;;;12.80;99.90;;;;;;5022463;28;20216;-84
2023/03/13 07:43:30;;;;;;;0.00;0.00;;;12.80;99.90;;;;;;5035966;28;20190;-84
2023/03/13 07:46:02;;;;;;;0.10;0.10;;;12.90;99.90;;;;;;5022005;28;20316;-84
2023/03/13 07:48:33;;;;;;;0.10;0.10;;;12.90;99.90;;;;;;5021083;28;20248;-83
2023/03/13 07:50:59;;;;;;;0.10;0.10;;;12.90;99.90;;;;;;5019313;28;20339;-83
2023/03/13 07:53:26;;;;;;;0.10;0.10;;;13.00;99.90;;;;;;5023233;28;20231;-84
2023/03/13 07:56:12;;;;;;;0.10;0.10;;;13.00;99.90;;;;;;5034548;28;20187;-84
2023/03/13 07:58:39;;;;;;;0.03;0.03;;;13.00;99.90;;;;;;5018964;28;20208;-84
2023/03/13 08:01:25;;;;;;;0.10;0.10;;;13.00;99.90;;;;;;5020083;28;20210;-84
2023/03/13 08:03:53;;;;;;;0.10;0.10;;;13.00;99.90;;;;;;5037531;28;20210;-83
2023/03/13 08:06:22;;;;;;;0.10;0.10;;;13.10;99.90;;;;;;5029159;28;20189;-82
2023/03/13 08:08:48;;;;;;;0.10;0.10;;;13.20;99.90;;;;;;5033863;28;20698;-83
2023/03/13 08:11:19;;;;;;;0.10;0.10;;;13.20;99.90;;;;;;5015710;28;20192;-84
2023/03/13 08:13:45;;;;;;;0.10;0.10;;;13.20;99.90;;;;;;5018786;28;20277;-83
2023/03/13 08:16:17;;;;;;;0.10;0.10;;;13.30;99.90;;;;;;5019916;28;20185;-85
2023/03/13 08:18:49;;;;;;;0.10;0.10;;;13.30;99.90;;;;;;5015284;28;20210;-86
2023/03/13 08:21:19;;;;;;;0.10;0.10;;;13.30;99.90;;;;;;5014330;28;20217;-83
2023/03/13 08:23:45;;;;;;;0.00;0.00;;;13.30;99.90;;;;;;5023702;28;20223;-85
2023/03/13 08:26:13;;;;;;;0.10;0.10;;;13.30;99.90;;;;;;5054274;28;20187;-84
2023/03/13 08:28:40;;;;;;;0.10;0.10;;;13.30;99.90;;;;;;5034137;28;20205;-83
2023/03/13 08:31:11;;;;;;;0.10;0.10;;;13.40;99.90;;;;;;5034847;28;20272;-83
2023/03/13 08:33:37;;;;;;;0.10;0.10;;;13.40;99.90;;;;;;5051306;28;20180;-84
2023/03/13 08:36:33;;;;;;;0.10;0.10;;;13.40;99.90;;;;;;5038577;28;20179;-84
2023/03/13 08:39:14;;;;;;;0.03;0.03;;;13.40;99.90;;;;;;4995643;28;20236;-84
2023/03/13 08:41:40;;;;;;;0.10;0.10;;;13.40;99.90;;;;;;5019534;28;20241;-84
2023/03/13 08:44:07;;;;;;;0.10;0.10;;;13.40;99.90;;;;;;5038957;28;20220;-83
2023/03/13 08:46:34;;;;;;;0.10;0.10;;;13.40;99.90;;;;;;5019651;28;20182;-84
2023/03/13 08:49:01;;;;;;;0.10;0.10;;;13.40;99.90;;;;;;5036149;28;20209;-84
2023/03/13 08:51:27;;;;;;;0.10;0.10;;;13.40;99.90;;;;;;5016931;28;20194;-84
2023/03/13 08:53:54;;;;;;;0.00;0.00;;;13.30;99.90;;;;;;5019438;28;20202;-84
2023/03/13 08:56:23;;;;;;;0.10;0.10;;;13.30;99.90;;;;;;5028814;28;20204;-83
2023/03/13 08:58:54;;;;;;;0.10;0.10;;;13.30;99.90;;;;;;5036677;28;20200;-83
2023/03/13 09:01:21;;;;;;;0.10;0.10;;;13.30;99.90;;;;;;5017507;28;21013;-84
2023/03/13 09:03:47;;;;;;;0.10;0.10;;;13.30;99.90;;;;;;5027941;28;20274;-84
2023/03/13 09:06:13;;;;;;;0.10;0.10;;;13.40;99.90;;;;;;5035710;28;20193;-84
2023/03/13 09:08:39;;;;;;;0.10;0.10;;;13.40;99.90;;;;;;5018148;28;20638;-84
2023/03/13 09:11:10;;;;;;;0.03;0.03;;;13.40;99.90;;;;;;5036121;28;21103;-84
2023/03/13 09:13:39;;;;;;;0.10;0.10;;;13.40;99.90;;;;;;5019345;28;20191;-84
2023/03/13 09:16:07;;;;;;;0.10;0.10;;;13.40;99.90;;;;;;5034913;28;20201;-84
2023/03/13 09:18:33;;;;;;;0.10;0.10;;;13.40;99.90;;;;;;5037201;28;20228;-84
2023/03/13 09:20:59;;;;;;;0.10;0.10;;;13.40;99.90;;;;;;5020394;28;20189;-84
2023/03/13 09:23:25;;;;;;;0.10;0.10;;;13.50;99.90;;;;;;5027159;28;20284;-84
2023/03/13 09:25:55;;;;;;;0.10;0.10;;;13.50;99.90;;;;;;5019287;28;20363;-84
2023/03/13 09:28:22;;;;;;;0.10;0.10;;;13.50;99.90;;;;;;5016880;28;20240;-84
2023/03/13 09:30:51;;;;;;;0.10;0.10;;;13.50;99.90;;;;;;5016267;28;20204;-83
2023/03/13 09:33:17;;;;;;;0.10;0.10;;;13.40;99.90;;;;;;5018427;28;20199;-85
2023/03/13 09:35:45;;;;;;;0.10;0.10;;;13.40;99.90;;;;;;5016736;28;20189;-84
2023/03/13 09:38:11;;;;;;;0.10;0.10;;;13.40;99.90;;;;;;5035148;28;20308;-84
2023/03/13 09:40:44;;;;;;;0.10;0.10;;;13.50;99.90;;;;;;5015943;28;20281;-84
2023/03/13 09:43:36;;;;;;;0.10;0.10;;;13.50;99.90;;;;;;5034448;28;20189;-84
2023/03/13 09:46:05;;;;;;;0.10;0.10;;;13.50;99.90;;;;;;5035728;28;20180;-83
2023/03/13 09:48:41;;;;;;;0.10;0.10;;;13.60;99.90;;;;;;5021733;28;20739;-83
2023/03/13 09:51:37;;;;;;;0.10;0.10;;;13.60;99.90;;;;;;5039668;28;20255;-83
2023/03/13 09:54:23;;;;;;;0.10;0.10;;;13.60;99.90;;;;;;5020791;28;20193;-83
2023/03/13 09:57:16;;;;;;;0.10;0.10;;;13.60;99.90;;;;;;5035692;28;20184;-83
2023/03/13 09:59:53;;;;;;;0.10;0.10;;;13.60;99.90;;;;;;5019508;28;20208;-83
2023/03/13 10:02:34;;;;;;;0.10;0.10;;;13.60;99.90;;;;;;5022172;28;20192;-83
2023/03/13 10:05:19;;;;;;;0.10;0.10;;;13.60;99.90;;;;;;5040416;28;20186;-83
2023/03/13 10:07:44;;;;;;;0.10;0.10;;;13.70;99.90;;;;;;5019067;28;20289;-83
2023/03/13 10:10:32;;;;;;;0.10;0.10;;;13.70;99.90;;;;;;5018976;28;20686;-83
2023/03/13 10:13:09;;;;;;;0.10;0.10;;;13.70;99.90;;;;;;5017882;28;20193;-83
2023/03/13 10:15:47;;;;;;;0.10;0.10;;;13.80;99.90;;;;;;5040394;28;20943;-83
2023/03/13 10:18:17;;;;;;;0.10;0.10;;;13.80;99.90;;;;;;5041676;28;20204;-83
2023/03/13 10:20:45;;;;;;;0.10;0.10;;;13.90;99.90;;;;;;5043192;28;20180;-85
2023/03/13 10:23:39;;;;;;;0.10;0.10;;;13.90;99.90;;;;;;5024779;28;20194;-84
2023/03/13 10:26:05;;;;;;;0.10;0.10;;;13.90;99.90;;;;;;5025422;28;20196;-84
2023/03/13 10:28:30;;;;;;;0.10;0.10;;;13.90;99.90;;;;;;5039625;28;20205;-84
2023/03/13 10:31:12;;;;;;;0.07;0.07;;;13.90;99.90;;;;;;5021929;28;20189;-84
2023/03/13 10:33:38;;;;;;;0.00;0.00;;;13.90;99.90;;;;;;5018605;28;20190;-83
2023/03/13 10:36:06;;;;;;;0.10;0.10;;;14.00;99.90;;;;;;5017817;28;20194;-83
2023/03/13 10:38:52;;;;;;;0.10;0.10;;;14.00;99.90;;;;;;5019958;28;20212;-85
2023/03/13 10:41:32;;;;;;;0.10;0.10;;;14.00;99.90;;;;;;5017147;28;20220;-83
2023/03/13 10:44:05;;;;;;;0.10;0.10;;;14.00;99.90;;;;;;5022522;28;20188;-84
2023/03/13 10:46:40;;;;;;;0.10;0.10;;;14.00;99.90;;;;;;5039393;28;20202;-83
2023/03/13 10:49:15;;;;;;;0.10;0.10;;;13.90;99.90;;;;;;5039800;28;20692;-84
2023/03/13 10:51:49;;;;;;;0.10;0.10;;;13.90;99.90;;;;;;5037798;28;20201;-84
2023/03/13 10:54:22;;;;;;;0.10;0.10;;;13.80;99.90;;;;;;5038597;28;20612;-82
2023/03/13 10:56:49;;;;;;;0.00;0.00;;;13.80;99.90;;;;;;5038768;28;20386;-83
2023/03/13 10:59:26;;;;;;;0.10;0.10;;;13.80;99.90;;;;;;5035497;28;20216;-84
2023/03/13 11:01:57;;;;;;;2.00;1.87;;;13.80;99.90;;;;;;5018934;28;20233;-83
2023/03/13 11:04:33;;;;;;;0.10;0.10;;;13.80;99.90;;;;;;5017565;28;20221;-85
2023/03/13 11:07:05;;;;;;;0.10;0.10;;;13.80;99.90;;;;;;5018739;28;20249;-84
2023/03/13 11:09:32;;;;;;;0.10;0.10;;;13.70;99.90;;;;;;5017287;28;20276;-85
2023/03/13 11:12:16;;;;;;;0.10;0.10;;;13.70;99.90;;;;;;5036489;28;20185;-84
2023/03/13 11:14:43;;;;;;;0.10;0.10;;;13.70;99.90;;;;;;5018506;28;20181;-84
2023/03/13 11:17:29;;;;;;;0.10;0.10;;;13.60;99.90;;;;;;5037407;28;20186;-84
2023/03/13 11:20:13;;;;;;;0.10;0.10;;;13.70;99.90;;;;;;5036009;28;20560;-84
2023/03/13 11:23:16;;;;;;;0.10;0.10;;;13.70;99.90;;;;;;5014959;28;20191;-85
2023/03/13 11:25:53;;;;;;;0.10;0.10;;;13.60;99.90;;;;;;5018505;28;20704;-85
2023/03/13 11:28:27;;;;;;;0.10;0.10;;;13.60;99.90;;;;;;5033578;28;20234;-85
2023/03/13 11:31:08;;;;;;;0.10;0.10;;;13.70;99.90;;;;;;5019084;28;20233;-84
2023/03/13 11:34:13;;;;;;;0.10;0.10;;;13.70;99.90;;;;;;5015432;28;20183;-84
2023/03/13 11:36:46;;;;;;;0.10;0.10;;;13.70;99.90;;;;;;5016641;28;20186;-84
2023/03/13 11:39:15;;;;;;;0.10;0.10;;;13.80;99.90;;;;;;5017808;28;20207;-83
2023/03/13 11:41:58;;;;;;;0.10;0.10;;;13.80;99.90;;;;;;5019213;28;20178;-85
2023/03/13 11:44:29;;;;;;;0.10;0.10;;;13.90;99.90;;;;;;5038689;28;20194;-84
2023/03/13 11:47:18;;;;;;;0.10;0.10;;;14.00;99.90;;;;;;5041517;28;20185;-84
2023/03/13 11:50:13;;;;;;;0.10;0.10;;;14.10;99.90;;;;;;5021278;28;20225;-85
2023/03/13 11:53:02;;;;;;;0.10;0.10;;;14.20;99.90;;;;;;5008606;28;20208;-84
2023/03/13 11:55:40;;;;;;;0.10;0.10;;;14.10;99.90;;;;;;5020378;28;20973;-84
2023/03/13 11:58:37;;;;;;;0.10;0.10;;;14.10;99.90;;;;;;5018952;28;20227;-84
2023/03/13 12:01:13;;;;;;;0.10;0.10;;;14.10;99.90;;;;;;5016288;28;20192;-84
2023/03/13 12:03:42;;;;;;;0.10;0.10;;;14.00;99.90;;;;;;5018939;28;20181;-83
2023/03/13 12:06:24;;;;;;;0.10;0.10;;;14.10;99.90;;;;;;5019864;28;20200;-85
2023/03/13 12:08:56;;;;;;;0.10;0.10;;;14.00;99.90;;;;;;5018021;28;20214;-84
2023/03/13 12:11:42;;;;;;;0.10;0.10;;;14.00;99.90;;;;;;5017287;28;20181;-84
2023/03/13 12:14:17;;;;;;;0.10;0.10;;;14.00;99.90;;;;;;5036095;28;20315;-84
2023/03/13 12:17:16;;;;;;;0.10;0.10;;;14.00;99.90;;;;;;5019009;28;20181;-84
2023/03/13 12:19:54;;;;;;;0.10;0.10;;;14.00;99.90;;;;;;5005704;28;20669;-84
2023/03/13 12:22:44;;;;;;;0.10;0.10;;;13.90;99.90;;;;;;5017042;28;20185;-84
2023/03/13 12:25:33;;;;;;;0.10;0.10;;;14.00;99.90;;;;;;5022623;28;21068;-84
2023/03/13 12:28:40;;;;;;;0.10;0.10;;;14.00;99.90;;;;;;5021767;28;20669;-83
2023/03/13 12:31:27;;;;;;;0.10;0.10;;;14.00;99.90;;;;;;5023739;28;20622;-83
2023/03/13 12:34:00;;;;;;;0.10;0.10;;;14.00;99.90;;;;;;5019193;28;20193;-83
2023/03/13 12:36:43;;;;;;;0.10;0.10;;;14.00;99.90;;;;;;5020272;28;20197;-83
2023/03/13 12:39:25;;;;;;;0.10;0.10;;;14.00;99.90;;;;;;5027257;28;20228;-84
2023/03/13 12:42:26;;;;;;;0.10;0.10;;;14.00;99.90;;;;;;5017345;28;21929;-84
2023/03/13 12:44:52;;;;;;;0.10;0.10;;;14.00;99.90;;;;;;4999395;28;20204;-84
2023/03/13 12:48:02;;;;;;;0.10;0.10;;;13.90;99.90;;;;;;5024439;28;20303;-84
2023/03/13 12:50:31;;;;;;;0.10;0.10;;;13.90;99.90;;;;;;5014216;28;20194;-84
2023/03/13 12:52:57;;;;;;;0.10;0.10;;;13.90;99.90;;;;;;5016180;28;20208;-84
2023/03/13 12:55:51;;;;;;;0.10;0.10;;;13.90;99.90;;;;;;5015320;28;20191;-84
2023/03/13 12:58:30;;;;;;;0.10;0.10;;;14.00;99.90;;;;;;5034515;28;20200;-84
2023/03/13 13:01:00;;;;;;;0.10;0.10;;;14.10;99.90;;;;;;5033608;28;20195;-84
2023/03/13 13:03:52;;;;;;;0.10;0.10;;;14.40;99.90;;;;;;5015128;28;20722;-85
2023/03/13 13:06:18;;;;;;;0.10;0.10;;;14.50;99.90;;;;;;5026076;28;20185;-85
2023/03/13 13:08:53;;;;;;;0.10;0.10;;;14.50;99.90;;;;;;5018006;28;20221;-85